Time;durP1;ratioP1;P1;durP2;ratioP2;P2;SDS_P1;SDS_P2;PMS_P1;PMS_P2;Temp;Humidity;BMP_temperature;BMP_pressure;BME280_temperature;BME280_humidity;BME280_pressure;Samples;Min_cycle;Max_cycle;Signal;HPM_P1;HPM_P2
2021/06/10 06:48:13;;;;;;;17.65;11.88;;;;;;;17.81;88.58;99314.03;1852597;77;28623;-57
2021/06/10 06:50:50;;;;;;;14.63;10.45;;;;;;;17.88;88.08;99306.35;1834585;77;22197;-65
2021/06/10 06:53:37;;;;;;;15.55;10.05;;;;;;;17.96;87.61;99308.75;1785621;80;21130;-58
2021/06/10 06:56:14;;;;;;;15.88;10.72;;;;;;;18.17;87.38;99309.39;1814850;77;22176;-57
2021/06/10 06:58:52;;;;;;;12.45;9.90;;;;;;;18.32;86.86;99313.83;1822129;77;22209;-58
2021/06/10 07:01:41;;;;;;;14.95;10.38;;;;;;;18.43;86.08;99309.67;1793488;80;21704;-57
2021/06/10 07:04:19;;;;;;;18.10;11.68;;;;;;;18.69;85.21;99308.62;1824636;77;22612;-60
2021/06/10 07:06:56;;;;;;;13.18;10.40;;;;;;;18.87;84.46;99307.81;1820604;77;22575;-62
2021/06/10 07:09:35;;;;;;;14.47;10.43;;;;;;;19.02;83.35;99305.62;1805209;77;22228;-57
2021/06/10 07:12:14;;;;;;;14.70;10.63;;;;;;;19.18;82.78;99306.84;1830275;77;22717;-58
2021/06/10 07:14:54;;;;;;;15.72;9.83;;;;;;;19.33;82.29;99304.62;1833622;77;22173;-60
2021/06/10 07:20:16;;;;;;;15.38;10.38;;;;;;;19.69;80.47;99307.72;1832050;77;22159;-59
2021/06/10 07:22:54;;;;;;;12.40;9.63;;;;;;;19.82;79.91;99304.06;1820674;77;22172;-57
2021/06/10 07:25:31;;;;;;;12.80;9.73;;;;;;;19.96;78.74;99305.46;1834935;77;22223;-58
2021/06/10 07:28:10;;;;;;;15.53;9.98;;;;;;;20.07;77.77;99308.66;1812169;77;22188;-58
2021/06/10 07:30:47;;;;;;;15.28;9.75;;;;;;;20.16;76.91;99313.09;1825609;77;22600;-57
2021/06/10 07:33:24;;;;;;;15.55;9.08;;;;;;;20.20;76.21;99310.80;1833829;77;22184;-58
2021/06/10 07:36:02;;;;;;;12.33;9.45;;;;;;;20.23;76.03;99308.48;1821678;77;22257;-58
2021/06/10 07:38:49;;;;;;;11.60;9.90;;;;;;;20.20;74.92;99310.80;1762331;80;21606;-59
2021/06/10 07:41:32;;;;;;;11.60;9.05;;;;;;;20.28;73.88;99308.60;1851424;77;22588;-57
2021/06/10 07:44:09;;;;;;;12.35;8.95;;;;;;;20.35;74.18;99312.47;1843518;77;22600;-59
2021/06/10 07:46:46;;;;;;;13.38;9.05;;;;;;;20.40;73.34;99311.26;1815404;77;22201;-61
2021/06/10 07:49:33;;;;;;;10.75;8.33;;;;;;;20.41;72.97;99312.87;1819727;77;22188;-58
2021/06/10 07:52:26;;;;;;;10.80;8.15;;;;;;;20.47;72.79;99313.30;1828868;77;22177;-57
2021/06/10 07:55:11;;;;;;;12.00;9.08;;;;;;;20.52;72.87;99313.95;1833912;77;22604;-59
2021/06/10 07:57:48;;;;;;;15.95;9.23;;;;;;;20.54;72.60;99317.97;1829341;77;22277;-60
2021/06/10 08:00:32;;;;;;;12.05;9.03;;;;;;;20.55;72.56;99314.27;1822098;77;22212;-58
2021/06/10 08:03:09;;;;;;;12.55;8.70;;;;;;;20.53;72.60;99316.88;1824342;77;22818;-59
2021/06/10 08:05:50;;;;;;;12.25;9.58;;;;;;;20.55;72.21;99321.42;1796513;77;22713;-59
2021/06/10 08:08:29;;;;;;;14.58;9.03;;;;;;;20.57;71.89;99323.34;1804116;77;22628;-60
2021/06/10 08:11:16;;;;;;;15.45;9.05;;;;;;;20.57;71.86;99331.31;1776242;79;21593;-59
2021/06/10 08:13:53;;;;;;;12.60;8.68;;;;;;;20.68;71.84;99329.15;1825263;77;22701;-57
2021/06/10 08:16:30;;;;;;;13.80;10.18;;;;;;;20.75;71.79;99326.40;1807565;77;22262;-57
2021/06/10 08:19:07;;;;;;;15.05;10.72;;;;;;;20.83;71.79;99323.37;1834081;77;22197;-61
2021/06/10 08:21:41;;;;;;;12.47;9.75;;;;;;;20.86;70.55;99321.05;1853405;77;22742;-58
2021/06/10 08:24:24;;;;;;;15.65;9.65;;;;;;;20.86;71.35;99318.39;1833696;77;22588;-58
2021/06/10 08:27:01;;;;;;;11.97;9.15;;;;;;;20.89;71.27;99324.57;1834551;77;22185;-58
2021/06/10 08:29:38;;;;;;;13.38;9.78;;;;;;;20.96;71.01;99320.45;1853296;77;22592;-57
2021/06/10 08:32:15;;;;;;;12.73;9.68;;;;;;;20.99;70.72;99323.95;1854662;77;22189;-58
2021/06/10 08:35:00;;;;;;;15.35;8.98;;;;;;;20.98;70.88;99323.67;1834158;77;22211;-57
2021/06/10 08:37:37;;;;;;;10.13;8.13;;;;;;;20.98;70.94;99327.66;1834968;77;22226;-58
2021/06/10 08:40:15;;;;;;;15.20;10.28;;;;;;;20.98;70.70;99327.66;1852889;77;22173;-58
2021/06/10 08:42:52;;;;;;;13.48;9.40;;;;;;;21.03;70.41;99325.12;1816493;77;22207;-58
2021/06/10 08:45:30;;;;;;;12.18;9.33;;;;;;;21.10;70.19;99328.97;1849582;77;22217;-58
2021/06/10 08:48:06;;;;;;;13.38;10.23;;;;;;;21.15;70.93;99324.56;1837260;77;28015;-58
2021/06/10 09:23:16;;;;;;;16.20;10.58;;;;;;;21.98;69.91;99310.38;1834530;77;24904;-57
2021/06/10 09:26:03;;;;;;;16.50;8.80;;;;;;;22.22;69.45;99305.20;1838127;77;22248;-57
2021/06/10 09:28:53;;;;;;;9.00;7.83;;;;;;;22.37;69.17;99298.00;1793740;80;21585;-57
2021/06/10 09:31:34;;;;;;;11.75;9.00;;;;;;;22.47;67.36;99299.98;1826542;77;22703;-57
2021/06/10 09:34:14;;;;;;;14.07;9.40;;;;;;;22.35;65.56;99294.75;1827875;77;22188;-60
2021/06/10 09:37:02;;;;;;;10.40;8.55;;;;;;;22.11;65.86;99304.80;1792773;80;21138;-58
2021/06/10 09:39:52;;;;;;;13.22;8.15;;;;;;;21.94;66.19;99298.11;1852851;77;22078;-57
2021/06/10 09:42:33;;;;;;;10.70;8.05;;;;;;;21.79;66.28;99299.17;1834646;77;22157;-57
2021/06/10 09:45:23;;;;;;;13.95;9.98;;;;;;;21.64;66.72;99303.71;1787477;78;21130;-62
2021/06/10 09:48:04;;;;;;;15.58;9.13;;;;;;;21.57;67.53;99295.61;1816535;77;22176;-58
